sensor_id;sensor_type;location;lat;lon;timestamp;P1;durP1;ratioP1;P2;durP2;ratioP2
45905;SDS011;31619;49.008;12.106;2022-08-21T00:01:20;28.23;;;16.55;;
45905;SDS011;31619;49.008;12.106;2022-08-21T00:03:49;25.80;;;15.70;;
45905;SDS011;31619;49.008;12.106;2022-08-21T00:06:15;22.65;;;15.40;;
45905;SDS011;31619;49.008;12.106;2022-08-21T00:08:41;19.05;;;15.93;;
45905;SDS011;31619;49.008;12.106;2022-08-21T00:11:07;25.42;;;14.95;;
45905;SDS011;31619;49.008;12.106;2022-08-21T00:13:34;27.10;;;15.65;;
45905;SDS011;31619;49.008;12.106;2022-08-21T00:16:00;34.58;;;16.60;;
45905;SDS011;31619;49.008;12.106;2022-08-21T00:18:26;22.75;;;15.23;;
45905;SDS011;31619;49.008;12.106;2022-08-21T00:20:52;20.98;;;15.18;;
45905;SDS011;31619;49.008;12.106;2022-08-21T00:23:18;24.88;;;15.15;;
45905;SDS011;31619;49.008;12.106;2022-08-21T00:25:44;27.42;;;15.63;;
45905;SDS011;31619;49.008;12.106;2022-08-21T00:28:10;28.35;;;15.00;;
45905;SDS011;31619;49.008;12.106;2022-08-21T00:30:37;25.08;;;13.77;;
45905;SDS011;31619;49.008;12.106;2022-08-21T00:33:04;19.80;;;13.57;;
45905;SDS011;31619;49.008;12.106;2022-08-21T00:35:32;17.52;;;13.52;;
45905;SDS011;31619;49.008;12.106;2022-08-21T00:38:01;25.23;;;13.30;;
45905;SDS011;31619;49.008;12.106;2022-08-21T00:40:29;26.15;;;13.60;;
45905;SDS011;31619;49.008;12.106;2022-08-21T00:43:02;22.63;;;13.07;;
45905;SDS011;31619;49.008;12.106;2022-08-21T00:45:28;26.05;;;13.48;;
45905;SDS011;31619;49.008;12.106;2022-08-21T00:47:54;21.80;;;13.05;;
45905;SDS011;31619;49.008;12.106;2022-08-21T00:50:21;20.15;;;12.98;;
45905;SDS011;31619;49.008;12.106;2022-08-21T00:52:48;22.50;;;13.25;;
45905;SDS011;31619;49.008;12.106;2022-08-21T00:55:16;20.00;;;14.60;;
45905;SDS011;31619;49.008;12.106;2022-08-21T00:57:45;27.23;;;15.65;;
45905;SDS011;31619;49.008;12.106;2022-08-21T01:00:20;22.00;;;14.65;;
45905;SDS011;31619;49.008;12.106;2022-08-21T01:02:49;22.90;;;14.70;;
45905;SDS011;31619;49.008;12.106;2022-08-21T01:05:14;20.85;;;14.73;;
45905;SDS011;31619;49.008;12.106;2022-08-21T01:07:41;23.50;;;16.27;;
45905;SDS011;31619;49.008;12.106;2022-08-21T01:10:09;21.05;;;15.25;;
45905;SDS011;31619;49.008;12.106;2022-08-21T01:12:35;28.20;;;14.98;;
45905;SDS011;31619;49.008;12.106;2022-08-21T01:15:03;28.88;;;14.93;;
45905;SDS011;31619;49.008;12.106;2022-08-21T01:17:30;24.65;;;14.82;;
45905;SDS011;31619;49.008;12.106;2022-08-21T01:19:58;28.88;;;15.35;;
45905;SDS011;31619;49.008;12.106;2022-08-21T01:22:24;24.92;;;16.05;;
45905;SDS011;31619;49.008;12.106;2022-08-21T01:24:52;31.13;;;17.92;;
45905;SDS011;31619;49.008;12.106;2022-08-21T01:27:18;32.33;;;15.68;;
45905;SDS011;31619;49.008;12.106;2022-08-21T01:29:46;28.52;;;16.17;;
45905;SDS011;31619;49.008;12.106;2022-08-21T01:32:20;30.33;;;14.18;;
45905;SDS011;31619;49.008;12.106;2022-08-21T01:34:47;24.88;;;14.18;;
45905;SDS011;31619;49.008;12.106;2022-08-21T01:37:14;25.50;;;14.38;;
45905;SDS011;31619;49.008;12.106;2022-08-21T01:39:41;31.63;;;15.90;;
45905;SDS011;31619;49.008;12.106;2022-08-21T01:42:07;16.40;;;14.18;;
45905;SDS011;31619;49.008;12.106;2022-08-21T01:44:33;29.88;;;14.82;;
45905;SDS011;31619;49.008;12.106;2022-08-21T01:47:00;30.23;;;14.32;;
45905;SDS011;31619;49.008;12.106;2022-08-21T01:49:28;19.50;;;14.00;;
45905;SDS011;31619;49.008;12.106;2022-08-21T01:51:54;27.50;;;16.85;;
45905;SDS011;31619;49.008;12.106;2022-08-21T01:54:19;30.50;;;17.35;;
45905;SDS011;31619;49.008;12.106;2022-08-21T01:56:47;34.42;;;20.25;;
45905;SDS011;31619;49.008;12.106;2022-08-21T01:59:15;39.38;;;19.77;;
45905;SDS011;31619;49.008;12.106;2022-08-21T02:01:41;30.33;;;17.15;;
45905;SDS011;31619;49.008;12.106;2022-08-21T02:04:08;37.15;;;16.88;;
45905;SDS011;31619;49.008;12.106;2022-08-21T02:06:35;25.00;;;16.63;;
45905;SDS011;31619;49.008;12.106;2022-08-21T02:09:03;21.65;;;15.63;;
45905;SDS011;31619;49.008;12.106;2022-08-21T02:11:29;24.48;;;17.38;;
45905;SDS011;31619;49.008;12.106;2022-08-21T02:13:55;30.48;;;16.88;;
45905;SDS011;31619;49.008;12.106;2022-08-21T02:16:21;57.13;;;18.90;;
45905;SDS011;31619;49.008;12.106;2022-08-21T02:18:47;26.92;;;14.68;;
45905;SDS011;31619;49.008;12.106;2022-08-21T02:21:12;29.38;;;14.05;;
45905;SDS011;31619;49.008;12.106;2022-08-21T02:23:38;23.33;;;12.98;;
45905;SDS011;31619;49.008;12.106;2022-08-21T02:26:04;18.08;;;12.57;;
45905;SDS011;31619;49.008;12.106;2022-08-21T02:28:32;39.92;;;13.65;;
45905;SDS011;31619;49.008;12.106;2022-08-21T02:30:58;34.58;;;12.93;;
45905;SDS011;31619;49.008;12.106;2022-08-21T02:33:25;38.65;;;13.57;;
45905;SDS011;31619;49.008;12.106;2022-08-21T02:35:51;23.55;;;12.20;;
45905;SDS011;31619;49.008;12.106;2022-08-21T02:38:19;20.90;;;11.63;;
45905;SDS011;31619;49.008;12.106;2022-08-21T02:40:49;14.27;;;11.63;;
45905;SDS011;31619;49.008;12.106;2022-08-21T02:43:17;26.30;;;11.48;;
45905;SDS011;31619;49.008;12.106;2022-08-21T02:45:44;34.35;;;13.07;;
45905;SDS011;31619;49.008;12.106;2022-08-21T02:48:12;55.03;;;14.63;;
45905;SDS011;31619;49.008;12.106;2022-08-21T02:50:42;21.10;;;10.35;;
45905;SDS011;31619;49.008;12.106;2022-08-21T02:53:10;84.85;;;15.48;;
45905;SDS011;31619;49.008;12.106;2022-08-21T02:55:40;26.92;;;11.93;;
45905;SDS011;31619;49.008;12.106;2022-08-21T02:58:06;25.13;;;12.15;;
45905;SDS011;31619;49.008;12.106;2022-08-21T03:00:34;21.83;;;11.82;;
45905;SDS011;31619;49.008;12.106;2022-08-21T03:03:01;19.92;;;10.75;;
45905;SDS011;31619;49.008;12.106;2022-08-21T03:05:27;13.68;;;10.55;;
45905;SDS011;31619;49.008;12.106;2022-08-21T03:07:56;12.10;;;10.43;;
45905;SDS011;31619;49.008;12.106;2022-08-21T03:10:23;11.30;;;10.15;;
45905;SDS011;31619;49.008;12.106;2022-08-21T03:12:50;12.57;;;9.30;;
45905;SDS011;31619;49.008;12.106;2022-08-21T03:15:16;16.48;;;10.38;;
45905;SDS011;31619;49.008;12.106;2022-08-21T03:17:44;12.13;;;10.48;;
45905;SDS011;31619;49.008;12.106;2022-08-21T03:20:10;11.43;;;10.27;;
45905;SDS011;31619;49.008;12.106;2022-08-21T03:22:35;19.52;;;11.48;;
45905;SDS011;31619;49.008;12.106;2022-08-21T03:25:01;17.23;;;10.18;;
45905;SDS011;31619;49.008;12.106;2022-08-21T03:27:28;16.13;;;10.43;;
45905;SDS011;31619;49.008;12.106;2022-08-21T03:29:56;22.67;;;10.63;;
45905;SDS011;31619;49.008;12.106;2022-08-21T03:32:22;20.05;;;10.13;;
45905;SDS011;31619;49.008;12.106;2022-08-21T03:34:48;10.63;;;9.23;;
45905;SDS011;31619;49.008;12.106;2022-08-21T03:37:13;21.63;;;10.43;;
45905;SDS011;31619;49.008;12.106;2022-08-21T03:39:40;33.55;;;10.93;;
45905;SDS011;31619;49.008;12.106;2022-08-21T03:42:06;15.30;;;9.68;;
45905;SDS011;31619;49.008;12.106;2022-08-21T03:44:32;33.25;;;10.90;;
45905;SDS011;31619;49.008;12.106;2022-08-21T03:46:59;26.00;;;10.55;;
45905;SDS011;31619;49.008;12.106;2022-08-21T03:49:25;12.75;;;9.68;;
45905;SDS011;31619;49.008;12.106;2022-08-21T03:51:51;25.27;;;11.05;;
45905;SDS011;31619;49.008;12.106;2022-08-21T03:54:17;26.15;;;11.52;;
45905;SDS011;31619;49.008;12.106;2022-08-21T03:56:43;11.35;;;9.93;;
45905;SDS011;31619;49.008;12.106;2022-08-21T03:59:08;15.27;;;10.43;;
45905;SDS011;31619;49.008;12.106;2022-08-21T04:01:35;12.27;;;11.02;;
45905;SDS011;31619;49.008;12.106;2022-08-21T04:04:01;14.93;;;10.80;;
45905;SDS011;31619;49.008;12.106;2022-08-21T04:06:27;15.98;;;10.77;;
45905;SDS011;31619;49.008;12.106;2022-08-21T04:08:53;17.73;;;11.63;;
45905;SDS011;31619;49.008;12.106;2022-08-21T04:11:19;20.63;;;11.50;;
45905;SDS011;31619;49.008;12.106;2022-08-21T04:13:45;13.48;;;10.82;;
45905;SDS011;31619;49.008;12.106;2022-08-21T04:16:11;11.35;;;10.20;;
45905;SDS011;31619;49.008;12.106;2022-08-21T04:18:37;16.17;;;10.18;;
45905;SDS011;31619;49.008;12.106;2022-08-21T04:21:03;15.57;;;10.65;;
45905;SDS011;31619;49.008;12.106;2022-08-21T04:23:30;19.70;;;11.88;;
45905;SDS011;31619;49.008;12.106;2022-08-21T04:25:56;10.95;;;9.75;;
45905;SDS011;31619;49.008;12.106;2022-08-21T04:28:26;14.55;;;9.75;;
45905;SDS011;31619;49.008;12.106;2022-08-21T04:30:52;17.75;;;10.75;;
45905;SDS011;31619;49.008;12.106;2022-08-21T04:33:18;14.95;;;10.48;;
45905;SDS011;31619;49.008;12.106;2022-08-21T04:35:45;11.90;;;10.70;;
45905;SDS011;31619;49.008;12.106;2022-08-21T04:38:10;14.80;;;10.40;;
45905;SDS011;31619;49.008;12.106;2022-08-21T04:40:36;14.00;;;10.30;;
45905;SDS011;31619;49.008;12.106;2022-08-21T04:43:03;12.52;;;10.77;;
45905;SDS011;31619;49.008;12.106;2022-08-21T04:45:32;20.60;;;12.38;;
45905;SDS011;31619;49.008;12.106;2022-08-21T04:48:00;18.27;;;11.75;;
45905;SDS011;31619;49.008;12.106;2022-08-21T04:50:50;17.45;;;11.27;;
45905;SDS011;31619;49.008;12.106;2022-08-21T04:53:18;28.77;;;13.75;;
45905;SDS011;31619;49.008;12.106;2022-08-21T04:55:48;20.00;;;12.45;;
45905;SDS011;31619;49.008;12.106;2022-08-21T04:58:17;15.30;;;11.73;;
45905;SDS011;31619;49.008;12.106;2022-08-21T05:00:46;15.55;;;11.05;;
45905;SDS011;31619;49.008;12.106;2022-08-21T05:03:13;20.52;;;10.70;;
45905;SDS011;31619;49.008;12.106;2022-08-21T05:05:40;18.40;;;11.10;;
45905;SDS011;31619;49.008;12.106;2022-08-21T05:08:06;15.05;;;11.25;;
45905;SDS011;31619;49.008;12.106;2022-08-21T05:10:34;13.80;;;10.50;;
45905;SDS011;31619;49.008;12.106;2022-08-21T05:13:00;16.80;;;10.80;;
45905;SDS011;31619;49.008;12.106;2022-08-21T05:15:26;13.18;;;11.00;;
45905;SDS011;31619;49.008;12.106;2022-08-21T05:17:52;15.73;;;11.05;;
45905;SDS011;31619;49.008;12.106;2022-08-21T05:20:17;12.43;;;10.65;;
45905;SDS011;31619;49.008;12.106;2022-08-21T05:22:44;14.13;;;11.07;;
45905;SDS011;31619;49.008;12.106;2022-08-21T05:25:10;14.13;;;9.45;;
45905;SDS011;31619;49.008;12.106;2022-08-21T05:27:37;19.40;;;12.30;;
45905;SDS011;31619;49.008;12.106;2022-08-21T05:30:04;14.65;;;10.43;;
45905;SDS011;31619;49.008;12.106;2022-08-21T05:32:33;11.70;;;10.50;;
45905;SDS011;31619;49.008;12.106;2022-08-21T05:34:59;16.13;;;11.50;;
45905;SDS011;31619;49.008;12.106;2022-08-21T05:37:24;11.25;;;10.27;;
45905;SDS011;31619;49.008;12.106;2022-08-21T05:39:50;14.38;;;10.88;;
45905;SDS011;31619;49.008;12.106;2022-08-21T05:42:16;17.27;;;10.85;;
45905;SDS011;31619;49.008;12.106;2022-08-21T05:44:41;10.88;;;9.88;;
45905;SDS011;31619;49.008;12.106;2022-08-21T05:47:09;12.30;;;9.65;;
45905;SDS011;31619;49.008;12.106;2022-08-21T05:49:35;10.00;;;9.02;;
45905;SDS011;31619;49.008;12.106;2022-08-21T05:52:02;14.38;;;10.27;;
45905;SDS011;31619;49.008;12.106;2022-08-21T05:54:28;12.10;;;10.27;;
45905;SDS011;31619;49.008;12.106;2022-08-21T05:56:53;10.07;;;9.07;;
45905;SDS011;31619;49.008;12.106;2022-08-21T05:59:19;10.50;;;9.50;;
45905;SDS011;31619;49.008;12.106;2022-08-21T06:01:45;10.20;;;9.20;;
45905;SDS011;31619;49.008;12.106;2022-08-21T06:04:11;8.60;;;7.80;;
45905;SDS011;31619;49.008;12.106;2022-08-21T06:06:37;9.10;;;8.35;;
45905;SDS011;31619;49.008;12.106;2022-08-21T06:09:03;9.50;;;8.70;;
45905;SDS011;31619;49.008;12.106;2022-08-21T06:11:29;10.20;;;9.27;;
45905;SDS011;31619;49.008;12.106;2022-08-21T06:13:56;9.23;;;8.52;;
45905;SDS011;31619;49.008;12.106;2022-08-21T06:16:22;8.52;;;7.82;;
45905;SDS011;31619;49.008;12.106;2022-08-21T06:18:48;9.00;;;8.30;;
45905;SDS011;31619;49.008;12.106;2022-08-21T06:21:14;8.48;;;7.88;;
45905;SDS011;31619;49.008;12.106;2022-08-21T06:23:40;8.80;;;7.78;;
45905;SDS011;31619;49.008;12.106;2022-08-21T06:26:07;8.85;;;8.15;;
45905;SDS011;31619;49.008;12.106;2022-08-21T06:28:33;9.73;;;8.93;;
45905;SDS011;31619;49.008;12.106;2022-08-21T06:31:00;8.38;;;7.60;;
45905;SDS011;31619;49.008;12.106;2022-08-21T06:33:26;9.30;;;8.52;;
45905;SDS011;31619;49.008;12.106;2022-08-21T06:35:51;8.43;;;7.82;;
45905;SDS011;31619;49.008;12.106;2022-08-21T06:38:17;9.95;;;8.98;;
45905;SDS011;31619;49.008;12.106;2022-08-21T06:40:44;9.50;;;8.70;;
45905;SDS011;31619;49.008;12.106;2022-08-21T06:43:11;10.07;;;9.02;;
45905;SDS011;31619;49.008;12.106;2022-08-21T06:45:38;10.23;;;9.35;;
45905;SDS011;31619;49.008;12.106;2022-08-21T06:48:04;10.48;;;9.38;;
45905;SDS011;31619;49.008;12.106;2022-08-21T06:50:32;9.02;;;8.13;;
45905;SDS011;31619;49.008;12.106;2022-08-21T06:53:07;9.85;;;8.90;;
45905;SDS011;31619;49.008;12.106;2022-08-21T06:55:35;9.20;;;8.30;;
45905;SDS011;31619;49.008;12.106;2022-08-21T06:58:01;9.35;;;8.55;;
45905;SDS011;31619;49.008;12.106;2022-08-21T07:00:27;10.13;;;9.13;;
45905;SDS011;31619;49.008;12.106;2022-08-21T07:02:53;8.50;;;7.80;;
45905;SDS011;31619;49.008;12.106;2022-08-21T07:05:19;8.65;;;8.05;;
45905;SDS011;31619;49.008;12.106;2022-08-21T07:07:45;9.73;;;8.52;;
45905;SDS011;31619;49.008;12.106;2022-08-21T07:10:11;9.70;;;8.70;;
45905;SDS011;31619;49.008;12.106;2022-08-21T07:12:38;9.80;;;8.90;;
45905;SDS011;31619;49.008;12.106;2022-08-21T07:15:04;9.75;;;8.90;;
45905;SDS011;31619;49.008;12.106;2022-08-21T07:17:30;9.70;;;8.77;;
45905;SDS011;31619;49.008;12.106;2022-08-21T07:19:56;9.05;;;8.25;;
45905;SDS011;31619;49.008;12.106;2022-08-21T07:22:22;9.13;;;8.32;;
45905;SDS011;31619;49.008;12.106;2022-08-21T07:24:49;8.02;;;7.32;;
45905;SDS011;31619;49.008;12.106;2022-08-21T07:27:15;8.52;;;7.82;;
45905;SDS011;31619;49.008;12.106;2022-08-21T07:29:40;9.40;;;8.60;;
45905;SDS011;31619;49.008;12.106;2022-08-21T07:32:06;8.57;;;7.85;;
45905;SDS011;31619;49.008;12.106;2022-08-21T07:34:32;9.00;;;8.30;;
45905;SDS011;31619;49.008;12.106;2022-08-21T07:36:57;8.55;;;7.85;;
45905;SDS011;31619;49.008;12.106;2022-08-21T07:39:23;8.90;;;8.20;;
45905;SDS011;31619;49.008;12.106;2022-08-21T07:41:49;9.35;;;8.45;;
45905;SDS011;31619;49.008;12.106;2022-08-21T07:44:15;8.32;;;7.63;;
45905;SDS011;31619;49.008;12.106;2022-08-21T07:46:40;8.55;;;7.95;;
45905;SDS011;31619;49.008;12.106;2022-08-21T07:49:06;8.32;;;7.72;;
45905;SDS011;31619;49.008;12.106;2022-08-21T07:51:32;8.70;;;8.00;;
45905;SDS011;31619;49.008;12.106;2022-08-21T07:53:58;8.15;;;7.55;;
45905;SDS011;31619;49.008;12.106;2022-08-21T07:56:25;9.02;;;8.32;;
45905;SDS011;31619;49.008;12.106;2022-08-21T07:58:52;8.43;;;7.63;;
45905;SDS011;31619;49.008;12.106;2022-08-21T08:01:18;10.77;;;9.88;;
45905;SDS011;31619;49.008;12.106;2022-08-21T08:03:44;8.68;;;7.97;;
45905;SDS011;31619;49.008;12.106;2022-08-21T08:06:11;9.68;;;8.90;;
45905;SDS011;31619;49.008;12.106;2022-08-21T08:08:38;9.02;;;8.23;;
45905;SDS011;31619;49.008;12.106;2022-08-21T08:11:05;9.93;;;9.10;;
45905;SDS011;31619;49.008;12.106;2022-08-21T08:13:31;9.02;;;8.23;;
45905;SDS011;31619;49.008;12.106;2022-08-21T08:16:02;9.60;;;8.80;;
45905;SDS011;31619;49.008;12.106;2022-08-21T08:18:28;9.77;;;8.98;;
45905;SDS011;31619;49.008;12.106;2022-08-21T08:20:54;10.15;;;9.18;;
45905;SDS011;31619;49.008;12.106;2022-08-21T08:23:19;9.27;;;8.57;;
45905;SDS011;31619;49.008;12.106;2022-08-21T08:25:45;9.80;;;9.00;;
45905;SDS011;31619;49.008;12.106;2022-08-21T08:28:11;10.10;;;9.30;;
45905;SDS011;31619;49.008;12.106;2022-08-21T08:30:36;9.70;;;8.90;;
45905;SDS011;31619;49.008;12.106;2022-08-21T08:33:02;10.05;;;9.25;;
45905;SDS011;31619;49.008;12.106;2022-08-21T08:35:28;10.25;;;9.25;;
45905;SDS011;31619;49.008;12.106;2022-08-21T08:37:54;10.85;;;9.88;;
45905;SDS011;31619;49.008;12.106;2022-08-21T08:43:06;10.13;;;9.32;;
45905;SDS011;31619;49.008;12.106;2022-08-21T08:45:33;10.35;;;9.40;;
45905;SDS011;31619;49.008;12.106;2022-08-21T08:48:03;10.65;;;9.75;;
45905;SDS011;31619;49.008;12.106;2022-08-21T08:55:55;10.40;;;9.63;;
45905;SDS011;31619;49.008;12.106;2022-08-21T08:58:27;10.35;;;9.55;;
45905;SDS011;31619;49.008;12.106;2022-08-21T09:00:56;10.43;;;9.52;;
45905;SDS011;31619;49.008;12.106;2022-08-21T09:03:23;9.93;;;9.02;;
45905;SDS011;31619;49.008;12.106;2022-08-21T09:05:53;10.07;;;9.27;;
45905;SDS011;31619;49.008;12.106;2022-08-21T09:08:29;9.63;;;8.95;;
45905;SDS011;31619;49.008;12.106;2022-08-21T09:11:28;9.98;;;9.20;;
45905;SDS011;31619;49.008;12.106;2022-08-21T09:19:23;9.68;;;8.88;;
45905;SDS011;31619;49.008;12.106;2022-08-21T09:22:34;10.38;;;9.57;;
45905;SDS011;31619;49.008;12.106;2022-08-21T09:25:26;10.18;;;9.38;;
45905;SDS011;31619;49.008;12.106;2022-08-21T09:28:07;10.85;;;9.95;;
45905;SDS011;31619;49.008;12.106;2022-08-21T09:30:33;10.50;;;9.48;;
45905;SDS011;31619;49.008;12.106;2022-08-21T09:32:59;10.65;;;9.70;;
45905;SDS011;31619;49.008;12.106;2022-08-21T09:35:24;10.90;;;9.90;;
45905;SDS011;31619;49.008;12.106;2022-08-21T09:37:54;10.60;;;9.63;;
45905;SDS011;31619;49.008;12.106;2022-08-21T09:40:40;10.20;;;9.38;;
45905;SDS011;31619;49.008;12.106;2022-08-21T09:45:36;10.13;;;9.32;;
45905;SDS011;31619;49.008;12.106;2022-08-21T09:48:23;9.93;;;9.07;;
45905;SDS011;31619;49.008;12.106;2022-08-21T09:50:51;11.43;;;10.52;;
45905;SDS011;31619;49.008;12.106;2022-08-21T09:53:21;10.80;;;9.90;;
45905;SDS011;31619;49.008;12.106;2022-08-21T09:55:57;11.00;;;10.05;;
45905;SDS011;31619;49.008;12.106;2022-08-21T09:58:59;11.90;;;10.88;;
45905;SDS011;31619;49.008;12.106;2022-08-21T10:01:25;10.40;;;9.50;;
45905;SDS011;31619;49.008;12.106;2022-08-21T10:04:03;9.82;;;9.00;;
45905;SDS011;31619;49.008;12.106;2022-08-21T10:06:32;10.88;;;9.98;;
45905;SDS011;31619;49.008;12.106;2022-08-21T10:09:06;10.57;;;9.82;;
45905;SDS011;31619;49.008;12.106;2022-08-21T10:11:32;9.90;;;9.10;;
45905;SDS011;31619;49.008;12.106;2022-08-21T10:14:08;9.65;;;8.95;;
45905;SDS011;31619;49.008;12.106;2022-08-21T10:16:56;9.82;;;9.13;;
45905;SDS011;31619;49.008;12.106;2022-08-21T10:25:21;10.02;;;9.32;;
45905;SDS011;31619;49.008;12.106;2022-08-21T10:27:59;10.75;;;9.95;;
45905;SDS011;31619;49.008;12.106;2022-08-21T10:30:55;11.55;;;10.60;;
45905;SDS011;31619;49.008;12.106;2022-08-21T10:39:07;10.82;;;10.02;;
45905;SDS011;31619;49.008;12.106;2022-08-21T10:42:05;10.05;;;9.35;;
45905;SDS011;31619;49.008;12.106;2022-08-21T10:44:36;8.65;;;7.93;;
45905;SDS011;31619;49.008;12.106;2022-08-21T10:47:28;10.27;;;9.38;;
45905;SDS011;31619;49.008;12.106;2022-08-21T10:52:49;10.70;;;9.93;;
45905;SDS011;31619;49.008;12.106;2022-08-21T10:55:40;9.70;;;9.00;;
45905;SDS011;31619;49.008;12.106;2022-08-21T10:58:11;9.45;;;8.65;;
45905;SDS011;31619;49.008;12.106;2022-08-21T11:00:51;8.93;;;8.32;;
45905;SDS011;31619;49.008;12.106;2022-08-21T11:05:54;10.07;;;9.38;;
45905;SDS011;31619;49.008;12.106;2022-08-21T11:08:37;10.15;;;9.45;;
45905;SDS011;31619;49.008;12.106;2022-08-21T11:11:10;9.05;;;8.27;;
45905;SDS011;31619;49.008;12.106;2022-08-21T11:13:51;8.00;;;7.40;;
45905;SDS011;31619;49.008;12.106;2022-08-21T11:19:07;8.70;;;8.10;;
45905;SDS011;31619;49.008;12.106;2022-08-21T11:21:48;9.35;;;8.75;;
45905;SDS011;31619;49.008;12.106;2022-08-21T11:24:37;7.55;;;7.15;;
45905;SDS011;31619;49.008;12.106;2022-08-21T11:29:49;9.15;;;8.45;;
45905;SDS011;31619;49.008;12.106;2022-08-21T11:35:17;8.68;;;8.07;;
45905;SDS011;31619;49.008;12.106;2022-08-21T11:43:23;8.10;;;7.50;;
45905;SDS011;31619;49.008;12.106;2022-08-21T11:49:31;7.78;;;7.22;;
45905;SDS011;31619;49.008;12.106;2022-08-21T11:52:15;7.07;;;6.57;;
45905;SDS011;31619;49.008;12.106;2022-08-21T12:02:35;7.53;;;6.80;;
45905;SDS011;31619;49.008;12.106;2022-08-21T12:05:11;7.45;;;6.95;;
45905;SDS011;31619;49.008;12.106;2022-08-21T12:08:00;7.45;;;6.82;;
45905;SDS011;31619;49.008;12.106;2022-08-21T12:10:39;6.18;;;5.60;;
45905;SDS011;31619;49.008;12.106;2022-08-21T12:13:20;5.85;;;5.55;;
45905;SDS011;31619;49.008;12.106;2022-08-21T12:15:48;7.18;;;6.68;;
45905;SDS011;31619;49.008;12.106;2022-08-21T12:18:22;7.95;;;7.35;;
45905;SDS011;31619;49.008;12.106;2022-08-21T12:21:04;7.82;;;7.22;;
45905;SDS011;31619;49.008;12.106;2022-08-21T12:23:59;6.38;;;5.78;;
45905;SDS011;31619;49.008;12.106;2022-08-21T12:26:32;6.97;;;6.57;;
45905;SDS011;31619;49.008;12.106;2022-08-21T12:29:04;6.50;;;6.10;;
45905;SDS011;31619;49.008;12.106;2022-08-21T12:31:47;5.78;;;5.38;;
45905;SDS011;31619;49.008;12.106;2022-08-21T12:34:14;4.10;;;3.90;;
45905;SDS011;31619;49.008;12.106;2022-08-21T12:37:00;5.20;;;4.90;;
45905;SDS011;31619;49.008;12.106;2022-08-21T12:39:30;4.30;;;4.00;;
45905;SDS011;31619;49.008;12.106;2022-08-21T12:43:00;4.60;;;4.30;;
45905;SDS011;31619;49.008;12.106;2022-08-21T12:45:07;5.80;;;5.25;;
45905;SDS011;31619;49.008;12.106;2022-08-21T12:47:52;4.32;;;4.03;;
45905;SDS011;31619;49.008;12.106;2022-08-21T12:55:40;3.42;;;3.13;;
45905;SDS011;31619;49.008;12.106;2022-08-21T12:58:16;3.10;;;2.97;;
45905;SDS011;31619;49.008;12.106;2022-08-21T13:00:50;3.50;;;3.30;;
45905;SDS011;31619;49.008;12.106;2022-08-21T13:03:22;2.95;;;2.78;;
45905;SDS011;31619;49.008;12.106;2022-08-21T13:05:49;3.33;;;3.03;;
45905;SDS011;31619;49.008;12.106;2022-08-21T13:08:18;2.70;;;2.60;;
45905;SDS011;31619;49.008;12.106;2022-08-21T13:10:45;2.60;;;2.50;;
45905;SDS011;31619;49.008;12.106;2022-08-21T13:13:18;3.30;;;3.10;;
45905;SDS011;31619;49.008;12.106;2022-08-21T13:15:47;2.78;;;2.67;;
45905;SDS011;31619;49.008;12.106;2022-08-21T13:18:23;2.70;;;2.50;;
45905;SDS011;31619;49.008;12.106;2022-08-21T13:20:51;2.30;;;2.20;;
45905;SDS011;31619;49.008;12.106;2022-08-21T13:23:28;2.35;;;2.25;;
45905;SDS011;31619;49.008;12.106;2022-08-21T13:25:54;2.92;;;2.72;;
45905;SDS011;31619;49.008;12.106;2022-08-21T13:28:21;2.00;;;2.00;;
45905;SDS011;31619;49.008;12.106;2022-08-21T13:30:48;2.00;;;1.90;;
45905;SDS011;31619;49.008;12.106;2022-08-21T13:33:20;2.00;;;1.90;;
45905;SDS011;31619;49.008;12.106;2022-08-21T13:38:33;2.00;;;1.90;;
45905;SDS011;31619;49.008;12.106;2022-08-21T13:41:05;2.38;;;2.28;;
45905;SDS011;31619;49.008;12.106;2022-08-21T13:43:37;2.05;;;1.95;;
45905;SDS011;31619;49.008;12.106;2022-08-21T13:46:09;3.08;;;2.85;;
45905;SDS011;31619;49.008;12.106;2022-08-21T13:48:37;2.30;;;2.20;;
45905;SDS011;31619;49.008;12.106;2022-08-21T13:51:03;2.35;;;2.25;;
45905;SDS011;31619;49.008;12.106;2022-08-21T13:55:58;2.50;;;2.40;;
45905;SDS011;31619;49.008;12.106;2022-08-21T13:58:30;2.28;;;2.17;;
45905;SDS011;31619;49.008;12.106;2022-08-21T14:00:59;2.40;;;2.30;;
45905;SDS011;31619;49.008;12.106;2022-08-21T14:03:34;2.40;;;2.30;;
45905;SDS011;31619;49.008;12.106;2022-08-21T14:06:10;2.40;;;2.30;;
45905;SDS011;31619;49.008;12.106;2022-08-21T14:08:41;2.47;;;2.28;;
45905;SDS011;31619;49.008;12.106;2022-08-21T14:11:12;2.70;;;2.42;;
45905;SDS011;31619;49.008;12.106;2022-08-21T14:13:46;2.13;;;2.03;;
45905;SDS011;31619;49.008;12.106;2022-08-21T14:16:24;2.40;;;2.30;;
45905;SDS011;31619;49.008;12.106;2022-08-21T14:21:29;1.90;;;1.80;;
45905;SDS011;31619;49.008;12.106;2022-08-21T14:24:05;2.22;;;2.13;;
45905;SDS011;31619;49.008;12.106;2022-08-21T14:26:32;1.85;;;1.75;;
45905;SDS011;31619;49.008;12.106;2022-08-21T14:29:01;2.35;;;2.25;;
45905;SDS011;31619;49.008;12.106;2022-08-21T14:31:30;2.40;;;2.30;;
45905;SDS011;31619;49.008;12.106;2022-08-21T14:33:58;4.10;;;2.22;;
45905;SDS011;31619;49.008;12.106;2022-08-21T14:36:24;2.40;;;2.30;;
45905;SDS011;31619;49.008;12.106;2022-08-21T14:38:50;2.10;;;2.00;;
45905;SDS011;31619;49.008;12.106;2022-08-21T14:41:17;2.10;;;2.00;;
45905;SDS011;31619;49.008;12.106;2022-08-21T14:43:46;2.13;;;2.03;;
45905;SDS011;31619;49.008;12.106;2022-08-21T14:46:13;1.70;;;1.70;;
45905;SDS011;31619;49.008;12.106;2022-08-21T14:48:46;2.30;;;2.20;;
45905;SDS011;31619;49.008;12.106;2022-08-21T14:51:12;2.50;;;2.40;;
45905;SDS011;31619;49.008;12.106;2022-08-21T14:53:38;2.30;;;2.20;;
45905;SDS011;31619;49.008;12.106;2022-08-21T14:56:04;2.00;;;2.00;;
45905;SDS011;31619;49.008;12.106;2022-08-21T14:58:32;2.67;;;2.50;;
45905;SDS011;31619;49.008;12.106;2022-08-21T15:00:59;2.30;;;2.20;;
45905;SDS011;31619;49.008;12.106;2022-08-21T15:03:28;2.55;;;2.38;;
45905;SDS011;31619;49.008;12.106;2022-08-21T15:05:54;2.22;;;2.13;;
45905;SDS011;31619;49.008;12.106;2022-08-21T15:08:20;1.90;;;1.90;;
45905;SDS011;31619;49.008;12.106;2022-08-21T15:10:46;2.45;;;2.35;;
45905;SDS011;31619;49.008;12.106;2022-08-21T15:13:12;2.60;;;2.50;;
45905;SDS011;31619;49.008;12.106;2022-08-21T15:15:39;2.50;;;2.40;;
45905;SDS011;31619;49.008;12.106;2022-08-21T15:18:07;2.80;;;2.47;;
45905;SDS011;31619;49.008;12.106;2022-08-21T15:20:33;2.40;;;2.30;;
45905;SDS011;31619;49.008;12.106;2022-08-21T15:22:59;2.88;;;2.67;;
45905;SDS011;31619;49.008;12.106;2022-08-21T15:25:24;2.55;;;2.40;;
45905;SDS011;31619;49.008;12.106;2022-08-21T15:27:50;2.80;;;2.60;;
45905;SDS011;31619;49.008;12.106;2022-08-21T15:30:16;2.65;;;2.55;;
45905;SDS011;31619;49.008;12.106;2022-08-21T15:32:41;2.47;;;2.38;;
45905;SDS011;31619;49.008;12.106;2022-08-21T15:35:07;2.50;;;2.40;;
45905;SDS011;31619;49.008;12.106;2022-08-21T15:37:33;2.20;;;2.17;;
45905;SDS011;31619;49.008;12.106;2022-08-21T15:39:59;2.42;;;2.33;;
45905;SDS011;31619;49.008;12.106;2022-08-21T15:42:25;2.28;;;2.17;;
45905;SDS011;31619;49.008;12.106;2022-08-21T15:44:52;2.35;;;2.25;;
45905;SDS011;31619;49.008;12.106;2022-08-21T15:47:21;2.03;;;2.03;;